createdAt,value
2023-02-22T00:01:07.742Z,8.20
2023-02-22T00:03:35.289Z,8.10
2023-02-22T00:06:05.488Z,8.10
2023-02-22T00:08:36.265Z,8.00
2023-02-22T00:11:09.227Z,7.90
2023-02-22T00:13:37.945Z,7.70
2023-02-22T00:16:06.311Z,7.70
2023-02-22T00:18:34.047Z,7.50
2023-02-22T00:21:01.586Z,7.40
2023-02-22T00:23:30.747Z,7.30
2023-02-22T00:26:00.177Z,7.20
2023-02-22T00:28:27.977Z,7.10
2023-02-22T00:30:55.973Z,7.00
2023-02-22T00:33:23.808Z,6.90
2023-02-22T00:35:51.265Z,6.80
2023-02-22T00:38:19.650Z,6.70
2023-02-22T00:40:47.140Z,6.60
2023-02-22T00:43:15.252Z,6.50
2023-02-22T00:45:43.262Z,6.40
2023-02-22T00:48:11.249Z,6.30
2023-02-22T00:50:38.969Z,6.20
2023-02-22T00:53:07.887Z,6.10
2023-02-22T00:55:37.220Z,6.10
2023-02-22T00:58:06.151Z,6.00
2023-02-22T01:00:41.795Z,6.00
2023-02-22T01:03:12.560Z,6.00
2023-02-22T01:05:40.100Z,6.10
2023-02-22T01:08:09.780Z,6.10
2023-02-22T01:10:38.640Z,6.10
2023-02-22T01:13:09.523Z,6.00
2023-02-22T01:15:42.216Z,6.00
2023-02-22T01:18:09.864Z,6.10
2023-02-22T01:20:37.517Z,6.20
2023-02-22T01:23:07.809Z,6.30
2023-02-22T01:25:36.608Z,6.30
2023-02-22T01:28:05.885Z,6.40
2023-02-22T01:30:35.506Z,6.50
2023-02-22T01:33:06.135Z,6.50
2023-02-22T01:35:37.027Z,6.60
2023-02-22T01:38:04.807Z,6.70
2023-02-22T01:40:42.100Z,6.80
2023-02-22T01:43:39.513Z,6.90
2023-02-22T01:46:24.217Z,6.90
2023-02-22T01:48:59.448Z,6.90
2023-02-22T01:51:38.136Z,6.90
2023-02-22T01:54:20.365Z,6.90
2023-02-22T01:56:50.865Z,6.90
2023-02-22T01:59:22.070Z,6.90
2023-02-22T02:01:49.810Z,6.80
2023-02-22T02:04:25.744Z,6.90
2023-02-22T02:06:59.759Z,6.90
2023-02-22T02:09:34.863Z,7.00
2023-02-22T02:12:05.069Z,7.00
2023-02-22T02:14:32.861Z,7.00
2023-02-22T02:17:03.971Z,7.00
2023-02-22T02:19:43.643Z,7.00
2023-02-22T02:23:12.513Z,7.00
2023-02-22T02:26:05.585Z,7.10
2023-02-22T02:29:43.141Z,7.10
2023-02-22T02:32:45.152Z,7.10
2023-02-22T02:35:45.728Z,7.00
2023-02-22T02:38:59.818Z,7.10
2023-02-22T02:41:50.701Z,7.10
2023-02-22T02:44:31.640Z,7.10
2023-02-22T02:47:08.238Z,7.10
2023-02-22T02:49:51.604Z,7.10
2023-02-22T02:52:21.621Z,7.20
2023-02-22T02:54:50.759Z,7.20
2023-02-22T02:57:18.086Z,7.20
2023-02-22T02:59:46.537Z,7.20
2023-02-22T03:02:55.240Z,7.20
2023-02-22T03:06:13.876Z,7.20
2023-02-22T03:09:36.819Z,7.30
2023-02-22T03:12:27.763Z,7.30
2023-02-22T03:15:13.687Z,7.40
2023-02-22T03:17:56.668Z,7.50
2023-02-22T03:24:14.710Z,7.30
2023-02-22T03:26:46.928Z,7.30
2023-02-22T03:29:20.513Z,7.20
2023-02-22T03:32:01.847Z,7.20
2023-02-22T03:34:38.752Z,7.20
2023-02-22T03:37:16.012Z,7.20
2023-02-22T03:39:47.363Z,7.20
2023-02-22T03:42:31.876Z,7.10
2023-02-22T03:45:04.656Z,7.00
2023-02-22T03:47:44.033Z,6.90
2023-02-22T03:50:15.480Z,6.60
2023-02-22T03:52:44.747Z,6.40
2023-02-22T03:55:18.181Z,6.30
2023-02-22T03:57:49.928Z,6.10
2023-02-22T04:00:24.216Z,5.90
2023-02-22T04:02:51.800Z,5.80
2023-02-22T04:05:21.344Z,5.70
2023-02-22T04:07:48.699Z,5.60
2023-02-22T04:10:17.141Z,5.50
2023-02-22T04:12:44.999Z,5.50
2023-02-22T04:15:16.131Z,5.40
2023-02-22T04:17:44.553Z,5.30
2023-02-22T04:20:15.309Z,5.20
2023-02-22T04:22:49.421Z,5.30
2023-02-22T04:25:17.310Z,5.30
2023-02-22T04:27:47.703Z,5.20
2023-02-22T04:30:19.209Z,5.10
2023-02-22T04:32:47.132Z,5.10
2023-02-22T04:35:16.294Z,5.20
2023-02-22T04:37:43.772Z,5.20
2023-02-22T04:40:12.710Z,5.30
2023-02-22T04:42:40.770Z,5.40
2023-02-22T04:45:09.678Z,5.60
2023-02-22T04:47:38.266Z,5.70
2023-02-22T04:50:07.938Z,5.80
2023-02-22T04:52:35.646Z,5.90
2023-02-22T04:55:04.862Z,6.00
2023-02-22T04:57:33.536Z,6.10
2023-02-22T05:00:00.927Z,6.20
2023-02-22T05:02:28.713Z,6.20
2023-02-22T05:04:56.244Z,6.30
2023-02-22T05:07:23.948Z,6.30
2023-02-22T05:09:51.308Z,6.30
2023-02-22T05:12:18.676Z,6.40
2023-02-22T05:14:46.065Z,6.50
2023-02-22T05:17:13.888Z,6.50
2023-02-22T05:19:42.176Z,6.50
2023-02-22T05:22:09.656Z,6.50
2023-02-22T05:24:37.248Z,6.60
2023-02-22T05:27:04.645Z,6.60
2023-02-22T05:29:32.496Z,6.60
2023-02-22T05:31:59.940Z,6.60
2023-02-22T05:34:27.450Z,6.60
2023-02-22T05:36:54.779Z,6.60
2023-02-22T05:39:22.272Z,6.60
2023-02-22T05:41:50.015Z,6.60
2023-02-22T05:44:17.405Z,6.60
2023-02-22T05:46:44.750Z,6.60
2023-02-22T05:49:12.046Z,6.60
2023-02-22T05:51:39.342Z,6.60
2023-02-22T05:54:06.617Z,6.60
2023-02-22T05:56:33.970Z,6.60
2023-02-22T05:59:01.239Z,6.70
2023-02-22T06:01:28.630Z,6.70
2023-02-22T06:03:55.926Z,6.70
2023-02-22T06:06:23.290Z,6.70
2023-02-22T06:08:50.829Z,6.80
2023-02-22T06:11:19.782Z,6.80
2023-02-22T06:13:51.977Z,6.80
2023-02-22T06:16:23.980Z,6.80
2023-02-22T06:18:51.361Z,6.90
2023-02-22T06:21:19.023Z,6.90
2023-02-22T06:23:46.638Z,6.90
2023-02-22T06:26:19.812Z,7.00
2023-02-22T06:28:47.425Z,7.00
2023-02-22T06:31:15.864Z,7.00
2023-02-22T06:33:43.352Z,7.10
2023-02-22T06:36:11.501Z,7.00
2023-02-22T06:38:38.790Z,7.10
2023-02-22T06:41:06.127Z,7.00
2023-02-22T06:43:33.450Z,7.00
2023-02-22T06:46:00.780Z,7.10
2023-02-22T06:48:28.099Z,7.20
2023-02-22T06:50:55.361Z,7.20
2023-02-22T06:53:22.736Z,7.30
2023-02-22T06:55:53.362Z,7.30
2023-02-22T06:58:20.680Z,7.40
2023-02-22T07:00:48.027Z,7.40
2023-02-22T07:03:16.402Z,7.50
2023-02-22T07:05:43.806Z,7.60
2023-02-22T07:08:11.915Z,7.70
2023-02-22T07:10:40.502Z,7.70
2023-02-22T07:13:09.285Z,7.70
2023-02-22T07:15:36.809Z,7.70
2023-02-22T07:18:04.299Z,7.70
2023-02-22T07:20:32.247Z,7.80
2023-02-22T07:23:01.278Z,7.90
2023-02-22T07:25:28.663Z,8.10
2023-02-22T07:27:55.999Z,8.20
2023-02-22T07:30:25.417Z,8.30
2023-02-22T07:32:55.100Z,8.40
2023-02-22T07:35:25.345Z,8.50
2023-02-22T07:37:55.757Z,8.60
2023-02-22T07:40:25.040Z,8.70
2023-02-22T07:43:18.601Z,8.60
2023-02-22T07:45:48.688Z,8.70
2023-02-22T07:48:17.698Z,8.70
2023-02-22T07:50:45.589Z,8.80
2023-02-22T07:53:16.806Z,8.80
2023-02-22T07:55:44.177Z,8.80
2023-02-22T07:58:15.540Z,8.90
2023-02-22T08:00:44.213Z,9.00
2023-02-22T08:03:14.191Z,9.10
2023-02-22T08:05:45.446Z,9.10
2023-02-22T08:08:14.643Z,9.10
2023-02-22T08:10:42.907Z,9.10
2023-02-22T08:13:10.878Z,9.20
2023-02-22T08:15:40.087Z,9.30
2023-02-22T08:18:12.641Z,9.50
2023-02-22T08:20:42.208Z,9.60
2023-02-22T08:23:10.769Z,9.70
2023-02-22T08:25:38.134Z,9.70
2023-02-22T08:28:10.159Z,9.80
2023-02-22T08:30:40.413Z,9.80
2023-02-22T08:33:08.204Z,9.80
2023-02-22T08:35:35.586Z,9.90
2023-02-22T08:38:05.733Z,9.90
2023-02-22T08:40:36.286Z,10.00
2023-02-22T08:43:04.757Z,10.10
2023-02-22T08:45:32.090Z,10.20
2023-02-22T08:47:59.699Z,10.40
2023-02-22T08:50:30.589Z,10.50
2023-02-22T08:52:59.780Z,10.60
2023-02-22T08:55:32.650Z,10.80
2023-02-22T08:58:04.517Z,10.70
2023-02-22T09:00:33.588Z,10.80
2023-02-22T09:03:02.853Z,10.60
2023-02-22T09:05:31.599Z,10.90
2023-02-22T09:08:00.378Z,10.90
2023-02-22T09:10:30.820Z,11.10
2023-02-22T09:13:00.849Z,11.30
2023-02-22T09:15:29.236Z,11.30
2023-02-22T09:17:56.869Z,11.50
2023-02-22T09:20:25.228Z,11.60
2023-02-22T09:22:53.723Z,11.60
2023-02-22T09:25:21.949Z,11.50
2023-02-22T09:27:51.212Z,11.50
2023-02-22T09:30:25.012Z,11.40
2023-02-22T09:32:57.911Z,11.60
2023-02-22T09:35:27.572Z,11.60
2023-02-22T09:38:00.121Z,11.80
2023-02-22T09:40:30.639Z,11.90
2023-02-22T09:43:14.030Z,11.90
2023-02-22T09:46:02.740Z,11.80
2023-02-22T09:48:33.857Z,11.50
2023-02-22T09:51:03.313Z,11.50
2023-02-22T09:53:37.215Z,11.70
2023-02-22T09:56:11.784Z,11.60
2023-02-22T09:58:52.711Z,11.60
2023-02-22T10:01:39.293Z,11.80
2023-02-22T10:04:24.507Z,11.80
2023-02-22T10:07:29.288Z,11.90
2023-02-22T10:09:58.716Z,12.20
2023-02-22T10:12:33.776Z,12.20
2023-02-22T10:15:50.262Z,12.30
2023-02-22T10:18:48.211Z,12.60
2023-02-22T10:21:47.907Z,12.70
2023-02-22T10:24:40.020Z,13.00
2023-02-22T10:27:16.487Z,12.90
2023-02-22T10:29:50.740Z,12.90
2023-02-22T10:32:24.054Z,12.80
2023-02-22T10:34:53.327Z,13.20
2023-02-22T10:37:32.395Z,13.60
2023-02-22T10:40:17.299Z,13.40
2023-02-22T10:42:45.092Z,13.30
2023-02-22T10:45:32.796Z,13.50
2023-02-22T10:48:18.404Z,13.50
2023-02-22T10:50:47.382Z,13.30
2023-02-22T10:53:18.262Z,13.10
2023-02-22T10:56:17.112Z,13.30
2023-02-22T10:59:04.297Z,13.10
2023-02-22T11:01:40.968Z,12.90
2023-02-22T11:04:22.336Z,12.90
2023-02-22T11:07:21.016Z,13.00
2023-02-22T11:10:05.942Z,12.90
2023-02-22T11:12:42.462Z,13.00
2023-02-22T11:15:27.700Z,12.70
2023-02-22T11:17:57.795Z,12.70
2023-02-22T11:20:34.604Z,12.60
2023-02-22T11:23:04.488Z,12.60
2023-02-22T11:25:38.302Z,12.50
2023-02-22T11:28:17.594Z,12.60
2023-02-22T11:30:48.885Z,12.80
2023-02-22T11:33:24.989Z,12.80
2023-02-22T11:35:55.090Z,12.90
2023-02-22T11:38:28.353Z,13.10
2023-02-22T11:41:34.993Z,13.10
2023-02-22T11:44:29.284Z,13.20
2023-02-22T11:47:01.465Z,13.20
2023-02-22T11:49:38.250Z,13.20
2023-02-22T11:52:34.718Z,13.20
2023-02-22T11:55:41.808Z,13.10
2023-02-22T11:58:46.060Z,12.90
2023-02-22T12:01:52.498Z,13.20
2023-02-22T12:07:50.590Z,13.60
2023-02-22T12:10:44.111Z,13.70
2023-02-22T12:13:51.553Z,13.60
2023-02-22T12:16:44.264Z,13.70
2023-02-22T12:19:22.238Z,13.70
2023-02-22T12:21:56.732Z,13.60
2023-02-22T12:24:36.102Z,13.60
2023-02-22T12:27:19.336Z,13.70
2023-02-22T12:29:51.032Z,13.60
2023-02-22T12:32:41.768Z,13.40
2023-02-22T12:35:27.934Z,13.10
2023-02-22T12:38:14.674Z,13.10
2023-02-22T12:40:57.122Z,13.20
2023-02-22T12:43:33.184Z,13.20
2023-02-22T12:46:12.103Z,12.90
2023-02-22T12:49:05.009Z,12.90
2023-02-22T12:51:51.752Z,12.80
2023-02-22T12:54:42.482Z,12.80
2023-02-22T12:57:31.817Z,12.90
2023-02-22T13:00:32.508Z,12.90
2023-02-22T13:03:26.290Z,12.90
2023-02-22T13:06:35.657Z,13.00
2023-02-22T13:09:24.545Z,13.00
2023-02-22T13:11:56.899Z,13.00
2023-02-22T13:15:10.679Z,13.20
2023-02-22T13:17:55.806Z,13.40
2023-02-22T13:20:41.901Z,13.40
2023-02-22T13:23:50.653Z,13.40
2023-02-22T13:26:41.439Z,13.40
2023-02-22T13:29:24.745Z,13.20
2023-02-22T13:32:21.163Z,13.20
2023-02-22T13:35:42.318Z,13.30
2023-02-22T13:38:48.030Z,13.10
2023-02-22T13:42:06.759Z,13.00
2023-02-22T13:45:05.508Z,13.10
2023-02-22T13:48:10.992Z,13.20
2023-02-22T13:51:06.654Z,13.20
2023-02-22T13:53:48.538Z,13.10
2023-02-22T13:56:18.968Z,12.70
2023-02-22T13:58:55.255Z,12.50
2023-02-22T14:01:46.599Z,12.50
2023-02-22T14:04:49.512Z,12.50
2023-02-22T14:07:50.253Z,12.50
2023-02-22T14:10:39.852Z,12.50
2023-02-22T14:13:07.917Z,12.50
2023-02-22T14:15:35.694Z,12.50
2023-02-22T14:18:07.377Z,12.50
2023-02-22T14:20:37.167Z,12.40
2023-02-22T14:23:33.768Z,12.40
2023-02-22T14:26:15.283Z,12.40
2023-02-22T14:28:54.434Z,12.40
2023-02-22T14:31:58.137Z,12.30
2023-02-22T14:34:45.020Z,12.30
2023-02-22T14:37:37.782Z,12.30
2023-02-22T14:40:29.277Z,12.30
2023-02-22T14:43:23.871Z,12.50
2023-02-22T14:45:56.593Z,12.40
2023-02-22T14:48:45.481Z,12.30
2023-02-22T14:51:39.699Z,12.30
2023-02-22T14:54:25.701Z,12.10
2023-02-22T14:57:12.153Z,11.90
2023-02-22T15:00:08.507Z,11.80
2023-02-22T15:02:41.487Z,11.70
2023-02-22T15:05:15.012Z,11.70
2023-02-22T15:07:56.350Z,11.70
2023-02-22T15:10:45.998Z,11.70
2023-02-22T15:13:27.829Z,11.70
2023-02-22T15:16:02.139Z,11.70
2023-02-22T15:18:42.828Z,11.60
2023-02-22T15:21:16.268Z,11.60
2023-02-22T15:23:53.526Z,11.60
2023-02-22T15:26:26.884Z,11.50
2023-02-22T15:28:58.668Z,11.50
2023-02-22T15:31:37.270Z,11.40
2023-02-22T15:34:25.211Z,11.40
2023-02-22T15:36:57.752Z,11.20
2023-02-22T15:39:33.237Z,11.20
2023-02-22T15:42:19.346Z,11.00
2023-02-22T15:44:48.652Z,10.80
2023-02-22T15:47:32.123Z,10.70
2023-02-22T15:50:38.241Z,10.60
2023-02-22T15:53:09.058Z,10.60
2023-02-22T15:55:43.833Z,10.40
2023-02-22T15:58:29.000Z,10.40
2023-02-22T16:01:05.360Z,10.20
2023-02-22T16:03:50.415Z,10.10
2023-02-22T16:06:36.655Z,10.00
2023-02-22T16:09:17.098Z,10.00
2023-02-22T16:11:46.271Z,9.80
2023-02-22T16:14:42.682Z,9.80
2023-02-22T16:17:31.115Z,9.60
2023-02-22T16:20:00.832Z,9.60
2023-02-22T16:22:34.060Z,9.50
2023-02-22T16:25:39.981Z,9.40
2023-02-22T16:28:31.003Z,9.20
2023-02-22T16:30:59.012Z,9.20
2023-02-22T16:33:29.916Z,9.00
2023-02-22T16:35:57.303Z,9.00
2023-02-22T16:38:27.679Z,8.80
2023-02-22T16:40:58.539Z,8.70
2023-02-22T16:43:30.742Z,8.60
2023-02-22T16:45:58.176Z,8.50
2023-02-22T16:48:27.178Z,8.40
2023-02-22T16:50:59.638Z,8.30
2023-02-22T16:53:30.682Z,8.30
2023-02-22T16:56:03.428Z,8.20
2023-02-22T16:58:34.446Z,8.00
2023-02-22T17:01:01.932Z,8.00
2023-02-22T17:03:29.733Z,8.00
2023-02-22T17:05:57.250Z,7.90
2023-02-22T17:08:25.279Z,7.80
2023-02-22T17:10:56.760Z,7.80
2023-02-22T17:13:27.473Z,7.80
2023-02-22T17:15:56.375Z,7.80
2023-02-22T17:18:29.117Z,7.70
2023-02-22T17:20:56.795Z,7.80
2023-02-22T17:23:24.773Z,7.70
2023-02-22T17:26:00.596Z,7.70
2023-02-22T17:28:28.562Z,7.60
2023-02-22T17:31:02.224Z,7.50
2023-02-22T17:33:33.119Z,7.50
2023-02-22T17:36:02.326Z,7.50
2023-02-22T17:38:30.827Z,7.50
2023-02-22T17:40:59.913Z,7.40
2023-02-22T17:43:30.750Z,7.40
2023-02-22T17:45:58.280Z,7.40
2023-02-22T17:48:26.093Z,7.40
2023-02-22T17:50:53.602Z,7.30
2023-02-22T17:53:22.885Z,7.30
2023-02-22T17:55:50.528Z,7.30
2023-02-22T17:58:18.372Z,7.30
2023-02-22T18:00:48.979Z,7.20
2023-02-22T18:03:25.878Z,7.20
2023-02-22T18:05:57.542Z,7.20
2023-02-22T18:08:27.407Z,7.10
2023-02-22T18:10:58.134Z,7.10
2023-02-22T18:13:27.192Z,7.00
2023-02-22T18:16:00.242Z,6.90
2023-02-22T18:18:28.370Z,7.00
2023-02-22T18:20:59.662Z,7.10
2023-02-22T18:23:29.784Z,7.00
2023-02-22T18:26:10.206Z,7.00
2023-02-22T18:28:39.123Z,7.00
2023-02-22T18:31:14.728Z,6.90
2023-02-22T18:33:43.751Z,6.80
2023-02-22T18:36:12.043Z,6.70
2023-02-22T18:38:43.629Z,6.70
2023-02-22T18:41:13.737Z,6.80
2023-02-22T18:43:41.428Z,6.70
2023-02-22T18:46:20.447Z,6.60
2023-02-22T18:48:49.256Z,6.70
2023-02-22T18:51:17.574Z,6.60
2023-02-22T18:53:47.738Z,6.60
2023-02-22T18:56:21.889Z,6.50
2023-02-22T18:58:58.720Z,6.40
2023-02-22T19:01:26.979Z,6.40
2023-02-22T19:03:55.838Z,6.30
2023-02-22T19:06:23.289Z,6.30
2023-02-22T19:08:51.153Z,6.20
2023-02-22T19:11:24.288Z,6.10
2023-02-22T19:13:54.099Z,6.10
2023-02-22T19:16:23.102Z,6.00
2023-02-22T19:18:52.790Z,6.10
2023-02-22T19:21:20.981Z,6.10
2023-02-22T19:23:49.157Z,5.90
2023-02-22T19:26:20.147Z,5.80
2023-02-22T19:28:49.063Z,5.80
2023-02-22T19:31:36.734Z,5.70
2023-02-22T19:34:09.149Z,5.60
2023-02-22T19:36:41.524Z,5.50
2023-02-22T19:39:09.254Z,5.40
2023-02-22T19:41:36.802Z,5.30
2023-02-22T19:44:04.549Z,5.20
2023-02-22T19:46:32.695Z,5.20
2023-02-22T19:49:02.319Z,5.20
2023-02-22T19:51:30.750Z,5.10
2023-02-22T19:54:00.617Z,5.10
2023-02-22T19:56:29.235Z,5.00
2023-02-22T19:58:58.863Z,4.90
2023-02-22T20:01:29.924Z,5.00
2023-02-22T20:04:23.506Z,5.10
2023-02-22T20:06:55.666Z,5.20
2023-02-22T20:09:24.515Z,5.30
2023-02-22T20:11:51.950Z,5.20
2023-02-22T20:14:26.188Z,5.20
2023-02-22T20:16:55.112Z,5.20
2023-02-22T20:19:22.802Z,5.30
2023-02-22T20:21:50.428Z,5.20
2023-02-22T20:24:21.244Z,5.30
2023-02-22T20:26:49.474Z,5.40
2023-02-22T20:29:17.510Z,5.40
2023-02-22T20:31:49.313Z,5.40
2023-02-22T20:34:16.810Z,5.30
2023-02-22T20:36:44.107Z,5.30
2023-02-22T20:39:13.707Z,5.40
2023-02-22T20:41:43.553Z,5.40
2023-02-22T20:44:13.736Z,5.40
2023-02-22T20:46:41.663Z,5.30
2023-02-22T20:49:11.476Z,5.20
2023-02-22T20:51:42.210Z,5.20
2023-02-22T20:54:12.259Z,5.10
2023-02-22T20:56:41.960Z,5.10
2023-02-22T20:59:13.064Z,5.10
2023-02-22T21:01:40.988Z,5.10
2023-02-22T21:04:13.606Z,5.10
2023-02-22T21:06:41.326Z,5.10
2023-02-22T21:09:14.015Z,5.00
2023-02-22T21:11:41.527Z,4.90
2023-02-22T21:14:12.399Z,4.90
2023-02-22T21:16:39.789Z,4.90
2023-02-22T21:19:07.907Z,4.90
2023-02-22T21:21:36.242Z,4.90
2023-02-22T21:24:03.758Z,4.80
2023-02-22T21:26:33.150Z,4.80
2023-02-22T21:29:06.285Z,4.70
2023-02-22T21:31:36.409Z,4.70
2023-02-22T21:34:04.467Z,4.60
2023-02-22T21:36:32.330Z,4.60
2023-02-22T21:39:01.549Z,4.50
2023-02-22T21:41:30.941Z,4.50
2023-02-22T21:43:59.378Z,4.40
2023-02-22T21:46:29.263Z,4.30
2023-02-22T21:48:58.823Z,4.20
2023-02-22T21:51:31.763Z,4.10
2023-02-22T21:54:02.049Z,4.10
2023-02-22T21:56:32.474Z,4.00
2023-02-22T21:59:03.556Z,4.10
2023-02-22T22:01:37.139Z,4.10
2023-02-22T22:04:05.100Z,4.00
2023-02-22T22:06:34.693Z,4.00
2023-02-22T22:09:05.357Z,4.00
2023-02-22T22:11:33.008Z,4.00
2023-02-22T22:14:00.532Z,4.00
2023-02-22T22:16:30.096Z,3.90
2023-02-22T22:18:57.908Z,3.90
2023-02-22T22:21:25.535Z,3.90
2023-02-22T22:23:56.089Z,3.90
2023-02-22T22:26:24.879Z,3.80
2023-02-22T22:28:55.985Z,3.80
2023-02-22T22:31:26.132Z,3.80
2023-02-22T22:33:55.572Z,3.90
2023-02-22T22:36:26.393Z,3.80
2023-02-22T22:38:57.518Z,3.70
2023-02-22T22:41:28.296Z,3.70
2023-02-22T22:43:56.363Z,3.70
2023-02-22T22:46:23.989Z,3.60
2023-02-22T22:48:51.413Z,3.60
2023-02-22T22:51:21.287Z,3.60
2023-02-22T22:53:50.808Z,3.50
2023-02-22T22:56:21.010Z,3.60
2023-02-22T22:58:51.061Z,3.50
2023-02-22T23:01:26.723Z,3.50
2023-02-22T23:04:02.941Z,3.50
2023-02-22T23:06:35.376Z,3.50
2023-02-22T23:09:11.786Z,3.60
2023-02-22T23:11:45.288Z,3.50
2023-02-22T23:14:21.179Z,3.50
2023-02-22T23:16:50.376Z,3.50
2023-02-22T23:19:19.427Z,3.40
2023-02-22T23:21:48.192Z,3.40
2023-02-22T23:24:19.373Z,3.50
2023-02-22T23:26:49.906Z,3.50
2023-02-22T23:29:19.749Z,3.40
2023-02-22T23:31:48.806Z,3.50
2023-02-22T23:34:18.012Z,3.40
2023-02-22T23:36:45.448Z,3.40
2023-02-22T23:39:14.743Z,3.30
2023-02-22T23:41:42.526Z,3.40
2023-02-22T23:44:17.909Z,3.30
2023-02-22T23:46:48.647Z,3.30
2023-02-22T23:49:20.777Z,3.40
2023-02-22T23:51:48.964Z,3.30
2023-02-22T23:54:19.780Z,3.20
2023-02-22T23:56:56.616Z,3.10
2023-02-22T23:59:26.271Z,3.10
